sensor_id;sensor_type;location;lat;lon;timestamp;temperature;humidity
3699;DHT22;1865;50.918;7.092;2022-08-18T00:04:33;23.10;54.80
3699;DHT22;1865;50.918;7.092;2022-08-18T00:07:08;23.10;55.20
3699;DHT22;1865;50.918;7.092;2022-08-18T00:09:37;22.90;55.50
3699;DHT22;1865;50.918;7.092;2022-08-18T00:12:07;22.90;55.30
3699;DHT22;1865;50.918;7.092;2022-08-18T00:14:35;22.90;55.20
3699;DHT22;1865;50.918;7.092;2022-08-18T00:17:01;22.90;55.40
3699;DHT22;1865;50.918;7.092;2022-08-18T00:19:26;22.90;55.30
3699;DHT22;1865;50.918;7.092;2022-08-18T00:21:52;22.80;55.70
3699;DHT22;1865;50.918;7.092;2022-08-18T00:24:17;22.70;55.70
3699;DHT22;1865;50.918;7.092;2022-08-18T00:26:43;22.70;55.90
3699;DHT22;1865;50.918;7.092;2022-08-18T00:29:09;22.60;55.90
3699;DHT22;1865;50.918;7.092;2022-08-18T00:31:34;22.60;55.70
3699;DHT22;1865;50.918;7.092;2022-08-18T00:34:01;22.60;56.00
3699;DHT22;1865;50.918;7.092;2022-08-18T00:36:27;22.60;56.10
3699;DHT22;1865;50.918;7.092;2022-08-18T00:38:53;22.50;55.90
3699;DHT22;1865;50.918;7.092;2022-08-18T00:41:22;22.40;56.20
3699;DHT22;1865;50.918;7.092;2022-08-18T00:43:51;22.40;56.50
3699;DHT22;1865;50.918;7.092;2022-08-18T00:46:20;22.40;56.50
3699;DHT22;1865;50.918;7.092;2022-08-18T00:48:50;22.30;56.90
3699;DHT22;1865;50.918;7.092;2022-08-18T00:51:42;22.30;56.70
3699;DHT22;1865;50.918;7.092;2022-08-18T00:54:21;22.20;57.00
3699;DHT22;1865;50.918;7.092;2022-08-18T00:56:54;22.10;57.30
3699;DHT22;1865;50.918;7.092;2022-08-18T00:59:36;22.20;57.10
3699;DHT22;1865;50.918;7.092;2022-08-18T01:02:06;22.20;56.80
3699;DHT22;1865;50.918;7.092;2022-08-18T01:04:43;22.20;56.60
3699;DHT22;1865;50.918;7.092;2022-08-18T01:07:13;22.10;57.70
3699;DHT22;1865;50.918;7.092;2022-08-18T01:09:40;22.10;56.70
3699;DHT22;1865;50.918;7.092;2022-08-18T01:12:06;22.10;56.80
3699;DHT22;1865;50.918;7.092;2022-08-18T01:14:34;22.10;56.70
3699;DHT22;1865;50.918;7.092;2022-08-18T01:17:01;22.10;56.30
3699;DHT22;1865;50.918;7.092;2022-08-18T01:19:45;22.20;55.90
3699;DHT22;1865;50.918;7.092;2022-08-18T01:25:18;22.00;56.50
3699;DHT22;1865;50.918;7.092;2022-08-18T01:28:04;21.90;56.60
3699;DHT22;1865;50.918;7.092;2022-08-18T01:30:31;21.90;57.00
3699;DHT22;1865;50.918;7.092;2022-08-18T01:32:57;21.80;57.00
3699;DHT22;1865;50.918;7.092;2022-08-18T01:35:25;21.70;56.90
3699;DHT22;1865;50.918;7.092;2022-08-18T01:37:53;21.60;57.30
3699;DHT22;1865;50.918;7.092;2022-08-18T01:40:21;21.60;57.20
3699;DHT22;1865;50.918;7.092;2022-08-18T01:42:47;21.50;57.60
3699;DHT22;1865;50.918;7.092;2022-08-18T01:45:14;21.50;57.70
3699;DHT22;1865;50.918;7.092;2022-08-18T01:47:41;21.60;57.70
3699;DHT22;1865;50.918;7.092;2022-08-18T01:50:10;21.60;57.50
3699;DHT22;1865;50.918;7.092;2022-08-18T01:52:37;21.60;57.60
3699;DHT22;1865;50.918;7.092;2022-08-18T01:55:04;21.60;57.30
3699;DHT22;1865;50.918;7.092;2022-08-18T01:57:32;21.60;57.30
3699;DHT22;1865;50.918;7.092;2022-08-18T01:59:59;21.60;57.50
3699;DHT22;1865;50.918;7.092;2022-08-18T02:02:28;21.60;57.60
3699;DHT22;1865;50.918;7.092;2022-08-18T02:05:06;21.50;57.70
3699;DHT22;1865;50.918;7.092;2022-08-18T02:07:36;21.50;57.90
3699;DHT22;1865;50.918;7.092;2022-08-18T02:10:05;21.50;58.00
3699;DHT22;1865;50.918;7.092;2022-08-18T02:12:32;21.50;58.00
3699;DHT22;1865;50.918;7.092;2022-08-18T02:14:59;21.50;58.00
3699;DHT22;1865;50.918;7.092;2022-08-18T02:17:25;21.50;57.90
3699;DHT22;1865;50.918;7.092;2022-08-18T02:19:50;21.60;57.60
3699;DHT22;1865;50.918;7.092;2022-08-18T02:22:19;21.60;57.50
3699;DHT22;1865;50.918;7.092;2022-08-18T02:24:47;21.60;57.60
3699;DHT22;1865;50.918;7.092;2022-08-18T02:27:14;21.50;57.40
3699;DHT22;1865;50.918;7.092;2022-08-18T02:29:41;21.50;57.60
3699;DHT22;1865;50.918;7.092;2022-08-18T02:32:08;21.50;57.60
3699;DHT22;1865;50.918;7.092;2022-08-18T02:34:39;21.50;57.30
3699;DHT22;1865;50.918;7.092;2022-08-18T02:37:09;21.50;57.30
3699;DHT22;1865;50.918;7.092;2022-08-18T02:39:37;21.50;57.30
3699;DHT22;1865;50.918;7.092;2022-08-18T02:42:06;21.40;57.20
3699;DHT22;1865;50.918;7.092;2022-08-18T02:44:32;21.30;57.30
3699;DHT22;1865;50.918;7.092;2022-08-18T02:46:59;21.30;57.50
3699;DHT22;1865;50.918;7.092;2022-08-18T02:49:24;21.30;57.50
3699;DHT22;1865;50.918;7.092;2022-08-18T02:51:51;21.30;57.30
3699;DHT22;1865;50.918;7.092;2022-08-18T02:54:19;21.30;57.40
3699;DHT22;1865;50.918;7.092;2022-08-18T02:56:48;21.20;57.50
3699;DHT22;1865;50.918;7.092;2022-08-18T02:59:22;21.20;57.50
3699;DHT22;1865;50.918;7.092;2022-08-18T03:01:54;21.20;57.50
3699;DHT22;1865;50.918;7.092;2022-08-18T03:04:28;21.20;57.50
3699;DHT22;1865;50.918;7.092;2022-08-18T03:06:55;21.20;57.10
3699;DHT22;1865;50.918;7.092;2022-08-18T03:09:21;21.20;57.40
3699;DHT22;1865;50.918;7.092;2022-08-18T03:11:48;21.20;57.00
3699;DHT22;1865;50.918;7.092;2022-08-18T03:14:15;21.20;57.00
3699;DHT22;1865;50.918;7.092;2022-08-18T03:16:44;21.10;57.00
3699;DHT22;1865;50.918;7.092;2022-08-18T03:19:11;21.00;57.30
3699;DHT22;1865;50.918;7.092;2022-08-18T03:21:40;21.00;57.20
3699;DHT22;1865;50.918;7.092;2022-08-18T03:24:06;20.80;57.50
3699;DHT22;1865;50.918;7.092;2022-08-18T03:26:38;20.70;57.80
3699;DHT22;1865;50.918;7.092;2022-08-18T03:29:04;20.60;57.90
3699;DHT22;1865;50.918;7.092;2022-08-18T03:31:30;20.60;58.20
3699;DHT22;1865;50.918;7.092;2022-08-18T03:33:57;20.50;58.80
3699;DHT22;1865;50.918;7.092;2022-08-18T03:36:26;20.40;58.90
3699;DHT22;1865;50.918;7.092;2022-08-18T03:38:52;20.40;59.60
3699;DHT22;1865;50.918;7.092;2022-08-18T03:41:21;20.50;59.30
3699;DHT22;1865;50.918;7.092;2022-08-18T03:43:50;20.50;59.00
3699;DHT22;1865;50.918;7.092;2022-08-18T03:46:18;20.60;59.10
3699;DHT22;1865;50.918;7.092;2022-08-18T03:48:45;20.60;58.70
3699;DHT22;1865;50.918;7.092;2022-08-18T03:51:22;20.70;58.60
3699;DHT22;1865;50.918;7.092;2022-08-18T03:53:50;20.70;58.80
3699;DHT22;1865;50.918;7.092;2022-08-18T03:56:27;20.50;59.30
3699;DHT22;1865;50.918;7.092;2022-08-18T03:58:57;20.60;59.80
3699;DHT22;1865;50.918;7.092;2022-08-18T04:01:27;20.60;59.60
3699;DHT22;1865;50.918;7.092;2022-08-18T04:04:00;20.60;59.70
3699;DHT22;1865;50.918;7.092;2022-08-18T04:06:32;20.70;59.90
3699;DHT22;1865;50.918;7.092;2022-08-18T04:09:02;20.70;60.00
3699;DHT22;1865;50.918;7.092;2022-08-18T04:11:31;20.70;59.80
3699;DHT22;1865;50.918;7.092;2022-08-18T04:13:58;20.90;59.60
3699;DHT22;1865;50.918;7.092;2022-08-18T04:16:28;20.90;59.50
3699;DHT22;1865;50.918;7.092;2022-08-18T04:18:58;20.90;59.20
3699;DHT22;1865;50.918;7.092;2022-08-18T04:21:30;20.90;59.70
3699;DHT22;1865;50.918;7.092;2022-08-18T04:23:57;20.90;59.60
3699;DHT22;1865;50.918;7.092;2022-08-18T04:26:30;21.00;59.20
3699;DHT22;1865;50.918;7.092;2022-08-18T04:28:56;20.90;58.90
3699;DHT22;1865;50.918;7.092;2022-08-18T04:31:24;20.90;58.90
3699;DHT22;1865;50.918;7.092;2022-08-18T04:33:50;21.00;58.90
3699;DHT22;1865;50.918;7.092;2022-08-18T04:36:16;21.00;58.50
3699;DHT22;1865;50.918;7.092;2022-08-18T04:38:42;21.10;58.70
3699;DHT22;1865;50.918;7.092;2022-08-18T04:41:11;21.10;58.60
3699;DHT22;1865;50.918;7.092;2022-08-18T04:43:38;21.10;58.60
3699;DHT22;1865;50.918;7.092;2022-08-18T04:46:04;21.10;59.30
3699;DHT22;1865;50.918;7.092;2022-08-18T04:48:38;21.10;58.70
3699;DHT22;1865;50.918;7.092;2022-08-18T04:51:07;21.00;59.20
3699;DHT22;1865;50.918;7.092;2022-08-18T04:53:33;21.10;59.20
3699;DHT22;1865;50.918;7.092;2022-08-18T04:56:30;21.20;59.20
3699;DHT22;1865;50.918;7.092;2022-08-18T04:59:05;21.30;59.10
3699;DHT22;1865;50.918;7.092;2022-08-18T05:01:35;21.30;59.10
3699;DHT22;1865;50.918;7.092;2022-08-18T05:04:01;21.50;58.90
3699;DHT22;1865;50.918;7.092;2022-08-18T05:06:28;21.60;58.70
3699;DHT22;1865;50.918;7.092;2022-08-18T05:08:57;21.60;58.80
3699;DHT22;1865;50.918;7.092;2022-08-18T05:11:25;21.60;58.70
3699;DHT22;1865;50.918;7.092;2022-08-18T05:13:55;21.70;58.60
3699;DHT22;1865;50.918;7.092;2022-08-18T05:16:23;21.80;58.60
3699;DHT22;1865;50.918;7.092;2022-08-18T05:18:51;21.80;58.30
3699;DHT22;1865;50.918;7.092;2022-08-18T05:21:18;21.80;58.40
3699;DHT22;1865;50.918;7.092;2022-08-18T05:23:47;21.90;58.30
3699;DHT22;1865;50.918;7.092;2022-08-18T05:26:14;22.00;58.00
3699;DHT22;1865;50.918;7.092;2022-08-18T05:28:43;22.10;58.00
3699;DHT22;1865;50.918;7.092;2022-08-18T05:31:11;22.10;58.20
3699;DHT22;1865;50.918;7.092;2022-08-18T05:33:37;22.20;58.10
3699;DHT22;1865;50.918;7.092;2022-08-18T05:36:09;22.30;58.10
3699;DHT22;1865;50.918;7.092;2022-08-18T05:39:14;22.30;57.90
3699;DHT22;1865;50.918;7.092;2022-08-18T05:44:34;22.50;58.90
3699;DHT22;1865;50.918;7.092;2022-08-18T05:47:28;22.60;59.20
3699;DHT22;1865;50.918;7.092;2022-08-18T05:49:56;22.60;59.40
3699;DHT22;1865;50.918;7.092;2022-08-18T05:52:39;22.60;59.80
3699;DHT22;1865;50.918;7.092;2022-08-18T05:55:13;22.70;59.80
3699;DHT22;1865;50.918;7.092;2022-08-18T05:58:03;22.80;59.80
3699;DHT22;1865;50.918;7.092;2022-08-18T06:00:31;22.70;60.10
3699;DHT22;1865;50.918;7.092;2022-08-18T06:03:08;22.70;60.50
3699;DHT22;1865;50.918;7.092;2022-08-18T06:05:48;22.70;60.60
3699;DHT22;1865;50.918;7.092;2022-08-18T06:08:17;22.80;60.30
3699;DHT22;1865;50.918;7.092;2022-08-18T06:10:53;22.90;60.20
3699;DHT22;1865;50.918;7.092;2022-08-18T06:13:19;22.90;60.30
3699;DHT22;1865;50.918;7.092;2022-08-18T06:19:02;22.90;59.70
3699;DHT22;1865;50.918;7.092;2022-08-18T06:21:52;22.90;59.70
3699;DHT22;1865;50.918;7.092;2022-08-18T06:27:18;23.00;59.30
3699;DHT22;1865;50.918;7.092;2022-08-18T06:30:16;23.00;59.40
3699;DHT22;1865;50.918;7.092;2022-08-18T06:33:12;23.00;59.30
3699;DHT22;1865;50.918;7.092;2022-08-18T06:35:49;23.00;59.10
3699;DHT22;1865;50.918;7.092;2022-08-18T06:38:56;23.00;58.80
3699;DHT22;1865;50.918;7.092;2022-08-18T06:41:37;23.00;58.80
3699;DHT22;1865;50.918;7.092;2022-08-18T06:44:15;23.10;59.10
3699;DHT22;1865;50.918;7.092;2022-08-18T06:49:33;23.10;59.20
3699;DHT22;1865;50.918;7.092;2022-08-18T06:52:30;23.20;59.00
3699;DHT22;1865;50.918;7.092;2022-08-18T06:55:10;23.20;58.80
3699;DHT22;1865;50.918;7.092;2022-08-18T07:00:53;23.30;58.60
3699;DHT22;1865;50.918;7.092;2022-08-18T07:03:22;23.30;58.40
3699;DHT22;1865;50.918;7.092;2022-08-18T07:08:47;23.40;58.20
3699;DHT22;1865;50.918;7.092;2022-08-18T07:11:26;23.40;58.30
3699;DHT22;1865;50.918;7.092;2022-08-18T07:13:56;23.40;58.20
3699;DHT22;1865;50.918;7.092;2022-08-18T07:18:50;23.30;58.80
3699;DHT22;1865;50.918;7.092;2022-08-18T07:21:31;23.30;59.00
3699;DHT22;1865;50.918;7.092;2022-08-18T07:24:21;23.30;59.00
3699;DHT22;1865;50.918;7.092;2022-08-18T07:29:40;23.40;58.50
3699;DHT22;1865;50.918;7.092;2022-08-18T07:32:31;23.30;59.10
3699;DHT22;1865;50.918;7.092;2022-08-18T07:35:01;23.30;59.90
3699;DHT22;1865;50.918;7.092;2022-08-18T07:37:42;23.40;59.20
3699;DHT22;1865;50.918;7.092;2022-08-18T07:40:30;23.40;58.90
3699;DHT22;1865;50.918;7.092;2022-08-18T07:43:08;23.50;59.00
3699;DHT22;1865;50.918;7.092;2022-08-18T07:45:43;23.50;58.60
3699;DHT22;1865;50.918;7.092;2022-08-18T07:48:24;23.50;58.90
3699;DHT22;1865;50.918;7.092;2022-08-18T07:51:20;23.50;58.90
3699;DHT22;1865;50.918;7.092;2022-08-18T07:53:55;23.50;58.90
3699;DHT22;1865;50.918;7.092;2022-08-18T07:59:33;23.60;59.00
3699;DHT22;1865;50.918;7.092;2022-08-18T08:07:54;23.60;58.80
3699;DHT22;1865;50.918;7.092;2022-08-18T08:10:28;23.60;58.90
3699;DHT22;1865;50.918;7.092;2022-08-18T08:18:10;23.70;59.00
3699;DHT22;1865;50.918;7.092;2022-08-18T08:20:54;23.70;59.00
3699;DHT22;1865;50.918;7.092;2022-08-18T08:23:54;23.80;58.50
3699;DHT22;1865;50.918;7.092;2022-08-18T08:26:46;23.80;58.40
3699;DHT22;1865;50.918;7.092;2022-08-18T08:29:39;23.90;58.20
3699;DHT22;1865;50.918;7.092;2022-08-18T08:32:55;23.90;58.10
3699;DHT22;1865;50.918;7.092;2022-08-18T08:35:38;24.00;58.00
3699;DHT22;1865;50.918;7.092;2022-08-18T08:38:13;24.00;57.80
3699;DHT22;1865;50.918;7.092;2022-08-18T08:41:08;24.00;57.50
3699;DHT22;1865;50.918;7.092;2022-08-18T08:43:46;24.00;57.80
3699;DHT22;1865;50.918;7.092;2022-08-18T08:48:58;24.00;57.40
3699;DHT22;1865;50.918;7.092;2022-08-18T08:51:49;24.00;57.70
3699;DHT22;1865;50.918;7.092;2022-08-18T08:54:25;24.20;57.40
3699;DHT22;1865;50.918;7.092;2022-08-18T08:57:02;24.10;57.40
3699;DHT22;1865;50.918;7.092;2022-08-18T08:59:29;24.20;57.30
3699;DHT22;1865;50.918;7.092;2022-08-18T09:05:02;24.20;57.10
3699;DHT22;1865;50.918;7.092;2022-08-18T09:07:36;24.20;56.80
3699;DHT22;1865;50.918;7.092;2022-08-18T09:10:41;24.20;56.10
3699;DHT22;1865;50.918;7.092;2022-08-18T09:19:11;24.10;57.20
3699;DHT22;1865;50.918;7.092;2022-08-18T09:21:49;24.20;56.90
3699;DHT22;1865;50.918;7.092;2022-08-18T09:24:38;24.30;56.70
3699;DHT22;1865;50.918;7.092;2022-08-18T09:27:45;24.40;56.40
3699;DHT22;1865;50.918;7.092;2022-08-18T09:38:31;24.80;55.80
3699;DHT22;1865;50.918;7.092;2022-08-18T09:41:20;24.90;55.50
3699;DHT22;1865;50.918;7.092;2022-08-18T09:44:05;25.10;55.00
3699;DHT22;1865;50.918;7.092;2022-08-18T09:52:00;25.20;52.50
3699;DHT22;1865;50.918;7.092;2022-08-18T09:54:28;25.00;54.10
3699;DHT22;1865;50.918;7.092;2022-08-18T09:57:23;25.20;53.90
3699;DHT22;1865;50.918;7.092;2022-08-18T10:07:48;25.60;53.00
3699;DHT22;1865;50.918;7.092;2022-08-18T10:13:22;25.70;52.00
3699;DHT22;1865;50.918;7.092;2022-08-18T10:15:56;25.70;51.80
3699;DHT22;1865;50.918;7.092;2022-08-18T10:18:42;25.70;52.10
3699;DHT22;1865;50.918;7.092;2022-08-18T10:21:18;25.70;51.80
3699;DHT22;1865;50.918;7.092;2022-08-18T10:34:45;25.50;52.80
3699;DHT22;1865;50.918;7.092;2022-08-18T10:37:43;25.40;52.30
3699;DHT22;1865;50.918;7.092;2022-08-18T10:40:23;25.50;52.50
3699;DHT22;1865;50.918;7.092;2022-08-18T10:43:09;25.60;52.10
3699;DHT22;1865;50.918;7.092;2022-08-18T10:45:48;25.70;51.10
3699;DHT22;1865;50.918;7.092;2022-08-18T10:48:26;25.80;51.80
3699;DHT22;1865;50.918;7.092;2022-08-18T10:51:19;26.00;51.40
3699;DHT22;1865;50.918;7.092;2022-08-18T10:59:54;26.00;49.90
3699;DHT22;1865;50.918;7.092;2022-08-18T11:03:04;25.90;50.30
3699;DHT22;1865;50.918;7.092;2022-08-18T11:05:34;26.20;49.30
3699;DHT22;1865;50.918;7.092;2022-08-18T11:08:02;26.20;48.90
3699;DHT22;1865;50.918;7.092;2022-08-18T11:10:44;26.30;49.00
3699;DHT22;1865;50.918;7.092;2022-08-18T11:13:24;26.50;48.60
3699;DHT22;1865;50.918;7.092;2022-08-18T11:18:47;26.70;47.70
3699;DHT22;1865;50.918;7.092;2022-08-18T11:21:34;26.80;47.40
3699;DHT22;1865;50.918;7.092;2022-08-18T11:29:21;27.00;47.70
3699;DHT22;1865;50.918;7.092;2022-08-18T11:31:57;27.00;47.10
3699;DHT22;1865;50.918;7.092;2022-08-18T11:34:29;27.00;46.70
3699;DHT22;1865;50.918;7.092;2022-08-18T11:36:58;27.10;46.50
3699;DHT22;1865;50.918;7.092;2022-08-18T11:39:27;27.00;46.50
3699;DHT22;1865;50.918;7.092;2022-08-18T11:41:52;26.90;46.30
3699;DHT22;1865;50.918;7.092;2022-08-18T11:44:21;27.00;46.60
3699;DHT22;1865;50.918;7.092;2022-08-18T11:46:55;27.00;46.50
3699;DHT22;1865;50.918;7.092;2022-08-18T11:49:32;26.90;45.70
3699;DHT22;1865;50.918;7.092;2022-08-18T11:52:18;27.00;46.50
3699;DHT22;1865;50.918;7.092;2022-08-18T11:54:47;27.00;45.90
3699;DHT22;1865;50.918;7.092;2022-08-18T12:00:37;27.30;46.00
3699;DHT22;1865;50.918;7.092;2022-08-18T12:06:20;27.60;44.40
3699;DHT22;1865;50.918;7.092;2022-08-18T12:09:03;27.70;43.90
3699;DHT22;1865;50.918;7.092;2022-08-18T12:11:35;27.90;43.80
3699;DHT22;1865;50.918;7.092;2022-08-18T12:14:08;27.90;43.60
3699;DHT22;1865;50.918;7.092;2022-08-18T12:16:38;27.90;43.50
3699;DHT22;1865;50.918;7.092;2022-08-18T12:19:07;27.80;43.50
3699;DHT22;1865;50.918;7.092;2022-08-18T12:21:37;27.70;43.60
3699;DHT22;1865;50.918;7.092;2022-08-18T12:24:04;27.70;43.80
3699;DHT22;1865;50.918;7.092;2022-08-18T12:26:30;27.70;43.80
3699;DHT22;1865;50.918;7.092;2022-08-18T12:28:55;27.70;43.60
3699;DHT22;1865;50.918;7.092;2022-08-18T12:31:21;27.70;43.70
3699;DHT22;1865;50.918;7.092;2022-08-18T12:33:46;27.70;43.10
3699;DHT22;1865;50.918;7.092;2022-08-18T12:36:12;27.60;43.20
3699;DHT22;1865;50.918;7.092;2022-08-18T12:38:38;27.80;43.00
3699;DHT22;1865;50.918;7.092;2022-08-18T12:41:05;27.90;42.90
3699;DHT22;1865;50.918;7.092;2022-08-18T12:43:36;28.00;43.10
3699;DHT22;1865;50.918;7.092;2022-08-18T12:46:04;27.90;41.60
3699;DHT22;1865;50.918;7.092;2022-08-18T12:48:30;27.90;42.30
3699;DHT22;1865;50.918;7.092;2022-08-18T12:50:56;28.20;42.80
3699;DHT22;1865;50.918;7.092;2022-08-18T12:53:24;28.50;42.60
3699;DHT22;1865;50.918;7.092;2022-08-18T12:55:50;28.90;41.70
3699;DHT22;1865;50.918;7.092;2022-08-18T12:58:16;29.20;39.80
3699;DHT22;1865;50.918;7.092;2022-08-18T13:00:42;29.50;39.50
3699;DHT22;1865;50.918;7.092;2022-08-18T13:03:07;29.50;39.40
3699;DHT22;1865;50.918;7.092;2022-08-18T13:05:34;29.50;39.40
3699;DHT22;1865;50.918;7.092;2022-08-18T13:08:02;29.80;38.60
3699;DHT22;1865;50.918;7.092;2022-08-18T13:10:31;30.60;37.80
3699;DHT22;1865;50.918;7.092;2022-08-18T13:12:56;31.40;35.70
3699;DHT22;1865;50.918;7.092;2022-08-18T13:15:22;31.80;35.20
3699;DHT22;1865;50.918;7.092;2022-08-18T13:17:48;32.00;35.60
3699;DHT22;1865;50.918;7.092;2022-08-18T13:20:16;32.00;35.30
3699;DHT22;1865;50.918;7.092;2022-08-18T13:22:42;31.90;34.10
3699;DHT22;1865;50.918;7.092;2022-08-18T13:25:13;31.80;34.90
3699;DHT22;1865;50.918;7.092;2022-08-18T13:27:40;31.60;34.90
3699;DHT22;1865;50.918;7.092;2022-08-18T13:30:09;31.50;35.20
3699;DHT22;1865;50.918;7.092;2022-08-18T13:32:39;31.50;35.50
3699;DHT22;1865;50.918;7.092;2022-08-18T13:35:07;31.40;35.60
3699;DHT22;1865;50.918;7.092;2022-08-18T13:37:33;31.50;35.80
3699;DHT22;1865;50.918;7.092;2022-08-18T13:40:02;31.20;35.50
3699;DHT22;1865;50.918;7.092;2022-08-18T13:42:28;31.00;36.60
3699;DHT22;1865;50.918;7.092;2022-08-18T13:44:58;31.50;36.40
3699;DHT22;1865;50.918;7.092;2022-08-18T13:47:25;31.60;35.80
3699;DHT22;1865;50.918;7.092;2022-08-18T13:49:54;31.50;35.20
3699;DHT22;1865;50.918;7.092;2022-08-18T13:52:19;31.20;35.60
3699;DHT22;1865;50.918;7.092;2022-08-18T13:54:45;31.10;36.40
3699;DHT22;1865;50.918;7.092;2022-08-18T13:57:11;31.00;36.10
3699;DHT22;1865;50.918;7.092;2022-08-18T13:59:38;31.00;36.10
3699;DHT22;1865;50.918;7.092;2022-08-18T14:02:07;30.80;35.60
3699;DHT22;1865;50.918;7.092;2022-08-18T14:04:33;30.30;36.90
3699;DHT22;1865;50.918;7.092;2022-08-18T14:07:00;30.00;37.60
3699;DHT22;1865;50.918;7.092;2022-08-18T14:09:27;30.00;38.20
3699;DHT22;1865;50.918;7.092;2022-08-18T14:11:53;30.00;38.10
3699;DHT22;1865;50.918;7.092;2022-08-18T14:14:20;30.00;38.10
3699;DHT22;1865;50.918;7.092;2022-08-18T14:16:46;29.80;38.20
3699;DHT22;1865;50.918;7.092;2022-08-18T14:19:12;29.70;37.90
3699;DHT22;1865;50.918;7.092;2022-08-18T14:21:56;29.70;38.20
3699;DHT22;1865;50.918;7.092;2022-08-18T14:24:41;29.50;38.10
3699;DHT22;1865;50.918;7.092;2022-08-18T14:27:35;29.60;38.40
3699;DHT22;1865;50.918;7.092;2022-08-18T14:30:04;29.70;38.50
3699;DHT22;1865;50.918;7.092;2022-08-18T14:32:31;29.70;38.80
3699;DHT22;1865;50.918;7.092;2022-08-18T14:34:59;29.80;38.20
3699;DHT22;1865;50.918;7.092;2022-08-18T14:37:25;30.00;37.80
3699;DHT22;1865;50.918;7.092;2022-08-18T14:39:52;29.70;37.20
3699;DHT22;1865;50.918;7.092;2022-08-18T14:42:18;29.60;38.20
3699;DHT22;1865;50.918;7.092;2022-08-18T14:44:46;29.70;38.10
3699;DHT22;1865;50.918;7.092;2022-08-18T14:47:13;29.80;37.80
3699;DHT22;1865;50.918;7.092;2022-08-18T14:49:41;29.80;37.60
3699;DHT22;1865;50.918;7.092;2022-08-18T14:52:08;29.80;37.40
3699;DHT22;1865;50.918;7.092;2022-08-18T14:54:35;29.80;37.40
3699;DHT22;1865;50.918;7.092;2022-08-18T14:57:01;29.70;37.50
3699;DHT22;1865;50.918;7.092;2022-08-18T14:59:28;29.70;37.50
3699;DHT22;1865;50.918;7.092;2022-08-18T15:01:55;29.70;37.40
3699;DHT22;1865;50.918;7.092;2022-08-18T15:04:21;29.80;37.30
3699;DHT22;1865;50.918;7.092;2022-08-18T15:06:48;29.70;37.40
3699;DHT22;1865;50.918;7.092;2022-08-18T15:09:14;29.80;36.40
3699;DHT22;1865;50.918;7.092;2022-08-18T15:11:40;29.90;36.50
3699;DHT22;1865;50.918;7.092;2022-08-18T15:14:05;29.80;36.70
3699;DHT22;1865;50.918;7.092;2022-08-18T15:16:32;29.90;37.10
3699;DHT22;1865;50.918;7.092;2022-08-18T15:19:00;29.90;37.20
3699;DHT22;1865;50.918;7.092;2022-08-18T15:21:26;29.90;36.50
3699;DHT22;1865;50.918;7.092;2022-08-18T15:24:11;29.90;36.50
3699;DHT22;1865;50.918;7.092;2022-08-18T15:26:56;30.00;37.00
3699;DHT22;1865;50.918;7.092;2022-08-18T15:29:27;29.90;36.60
3699;DHT22;1865;50.918;7.092;2022-08-18T15:31:53;29.90;36.80
3699;DHT22;1865;50.918;7.092;2022-08-18T15:34:19;30.00;37.20
3699;DHT22;1865;50.918;7.092;2022-08-18T15:36:45;30.00;37.10
3699;DHT22;1865;50.918;7.092;2022-08-18T15:39:12;30.00;37.20
3699;DHT22;1865;50.918;7.092;2022-08-18T15:41:43;30.00;37.20
3699;DHT22;1865;50.918;7.092;2022-08-18T15:44:16;29.90;36.60
3699;DHT22;1865;50.918;7.092;2022-08-18T15:46:42;29.90;36.60
3699;DHT22;1865;50.918;7.092;2022-08-18T15:49:09;29.80;36.60
3699;DHT22;1865;50.918;7.092;2022-08-18T15:51:36;29.70;36.90
3699;DHT22;1865;50.918;7.092;2022-08-18T15:54:03;29.70;37.00
3699;DHT22;1865;50.918;7.092;2022-08-18T15:56:29;29.60;37.00
3699;DHT22;1865;50.918;7.092;2022-08-18T15:58:56;29.60;36.90
3699;DHT22;1865;50.918;7.092;2022-08-18T16:01:24;29.60;36.70
3699;DHT22;1865;50.918;7.092;2022-08-18T16:03:51;29.70;36.60
3699;DHT22;1865;50.918;7.092;2022-08-18T16:06:21;29.70;36.50
3699;DHT22;1865;50.918;7.092;2022-08-18T16:08:48;29.60;36.10
3699;DHT22;1865;50.918;7.092;2022-08-18T16:11:17;29.70;36.40
3699;DHT22;1865;50.918;7.092;2022-08-18T16:13:48;29.70;36.30
3699;DHT22;1865;50.918;7.092;2022-08-18T16:16:20;29.60;36.40
3699;DHT22;1865;50.918;7.092;2022-08-18T16:18:47;29.70;36.20
3699;DHT22;1865;50.918;7.092;2022-08-18T16:21:15;29.60;36.20
3699;DHT22;1865;50.918;7.092;2022-08-18T16:23:43;29.60;36.40
3699;DHT22;1865;50.918;7.092;2022-08-18T16:26:10;29.60;36.20
3699;DHT22;1865;50.918;7.092;2022-08-18T16:28:45;29.50;36.10
3699;DHT22;1865;50.918;7.092;2022-08-18T16:31:13;29.50;36.00
3699;DHT22;1865;50.918;7.092;2022-08-18T16:33:44;29.40;35.80
3699;DHT22;1865;50.918;7.092;2022-08-18T16:36:11;29.30;36.30
3699;DHT22;1865;50.918;7.092;2022-08-18T16:38:40;29.30;36.30
3699;DHT22;1865;50.918;7.092;2022-08-18T16:41:14;29.30;36.20
3699;DHT22;1865;50.918;7.092;2022-08-18T16:43:41;29.30;36.40
3699;DHT22;1865;50.918;7.092;2022-08-18T16:46:10;29.30;36.60
3699;DHT22;1865;50.918;7.092;2022-08-18T16:48:36;29.30;36.90
3699;DHT22;1865;50.918;7.092;2022-08-18T16:51:01;29.30;37.00
3699;DHT22;1865;50.918;7.092;2022-08-18T16:53:27;29.30;37.10
3699;DHT22;1865;50.918;7.092;2022-08-18T16:55:53;29.30;37.30
3699;DHT22;1865;50.918;7.092;2022-08-18T16:58:18;29.30;37.30
3699;DHT22;1865;50.918;7.092;2022-08-18T17:01:03;29.30;37.40
3699;DHT22;1865;50.918;7.092;2022-08-18T17:03:48;29.20;37.30
3699;DHT22;1865;50.918;7.092;2022-08-18T17:06:34;29.10;37.50
3699;DHT22;1865;50.918;7.092;2022-08-18T17:09:00;29.10;37.70
3699;DHT22;1865;50.918;7.092;2022-08-18T17:11:28;29.00;37.70
3699;DHT22;1865;50.918;7.092;2022-08-18T17:13:56;29.00;37.90
3699;DHT22;1865;50.918;7.092;2022-08-18T17:16:23;28.90;37.50
3699;DHT22;1865;50.918;7.092;2022-08-18T17:18:50;28.90;37.60
3699;DHT22;1865;50.918;7.092;2022-08-18T17:21:18;29.00;38.20
3699;DHT22;1865;50.918;7.092;2022-08-18T17:23:44;28.90;37.60
3699;DHT22;1865;50.918;7.092;2022-08-18T17:26:17;28.90;37.90
3699;DHT22;1865;50.918;7.092;2022-08-18T17:28:50;28.90;37.80
3699;DHT22;1865;50.918;7.092;2022-08-18T17:31:23;28.90;38.10
3699;DHT22;1865;50.918;7.092;2022-08-18T17:33:51;28.80;38.10
3699;DHT22;1865;50.918;7.092;2022-08-18T17:36:36;28.80;38.10
3699;DHT22;1865;50.918;7.092;2022-08-18T17:39:04;28.80;38.30
3699;DHT22;1865;50.918;7.092;2022-08-18T17:41:32;28.80;38.20
3699;DHT22;1865;50.918;7.092;2022-08-18T17:44:21;28.70;38.30
3699;DHT22;1865;50.918;7.092;2022-08-18T17:46:49;28.70;38.30
3699;DHT22;1865;50.918;7.092;2022-08-18T17:49:35;28.70;38.20
3699;DHT22;1865;50.918;7.092;2022-08-18T17:52:21;28.70;38.30
3699;DHT22;1865;50.918;7.092;2022-08-18T17:55:01;28.70;38.40
3699;DHT22;1865;50.918;7.092;2022-08-18T17:57:33;28.70;38.30
3699;DHT22;1865;50.918;7.092;2022-08-18T18:02:30;28.60;38.40
3699;DHT22;1865;50.918;7.092;2022-08-18T18:05:04;28.60;38.80
3699;DHT22;1865;50.918;7.092;2022-08-18T18:07:55;28.60;38.60
3699;DHT22;1865;50.918;7.092;2022-08-18T18:10:46;28.50;38.80
3699;DHT22;1865;50.918;7.092;2022-08-18T18:15:45;28.50;38.80
3699;DHT22;1865;50.918;7.092;2022-08-18T18:21:05;28.40;39.50
3699;DHT22;1865;50.918;7.092;2022-08-18T18:23:34;28.40;38.90
3699;DHT22;1865;50.918;7.092;2022-08-18T18:29:21;28.40;39.00
3699;DHT22;1865;50.918;7.092;2022-08-18T18:32:00;28.40;39.10
3699;DHT22;1865;50.918;7.092;2022-08-18T18:34:30;28.40;39.30
3699;DHT22;1865;50.918;7.092;2022-08-18T18:36:58;28.30;39.40